Time;durP1;ratioP1;P1;durP2;ratioP2;P2;SDS_P1;SDS_P2;PMS_P1;PMS_P2;Temp;Humidity;BMP_temperature;BMP_pressure;BME280_temperature;BME280_humidity;BME280_pressure;Samples;Min_cycle;Max_cycle;Signal;HPM_P1;HPM_P2
2022/03/30 00:00:38;;;;;;;27.65;10.88;;;5.70;99.90;;;;;;5068539;28;20045;-67
2022/03/30 00:03:04;;;;;;;29.20;11.93;;;5.70;99.90;;;;;;5072873;28;20470;-68
2022/03/30 00:05:30;;;;;;;32.53;10.73;;;5.70;99.90;;;;;;5069966;28;20052;-68
2022/03/30 00:07:56;;;;;;;33.55;11.43;;;5.70;99.90;;;;;;5069302;28;20156;-68
2022/03/30 00:10:22;;;;;;;33.70;11.07;;;5.70;99.90;;;;;;5063004;28;20127;-67
2022/03/30 00:12:48;;;;;;;24.27;10.82;;;5.70;99.90;;;;;;5071594;28;20505;-67
2022/03/30 00:15:16;;;;;;;30.95;11.55;;;5.70;99.90;;;;;;5067846;28;20041;-67
2022/03/30 00:17:42;;;;;;;33.08;11.57;;;5.80;99.90;;;;;;5054817;28;20462;-67
2022/03/30 00:20:08;;;;;;;30.77;11.45;;;5.80;99.90;;;;;;5071119;28;20051;-69
2022/03/30 00:22:34;;;;;;;32.83;11.68;;;5.80;99.90;;;;;;5071105;28;20036;-67
2022/03/30 00:25:00;;;;;;;23.52;10.43;;;5.80;99.90;;;;;;5038908;28;20462;-68
2022/03/30 00:27:25;;;;;;;30.67;11.77;;;5.80;99.90;;;;;;5071787;28;20044;-67
2022/03/30 00:29:51;;;;;;;27.88;11.73;;;5.80;99.90;;;;;;5054598;28;20049;-69
2022/03/30 00:32:18;;;;;;;29.55;11.27;;;5.80;99.90;;;;;;5053207;28;20123;-67
2022/03/30 00:34:44;;;;;;;28.00;11.20;;;5.80;99.90;;;;;;5071123;28;20078;-67
2022/03/30 00:37:10;;;;;;;25.40;10.90;;;5.80;99.90;;;;;;5056392;28;20139;-67
2022/03/30 00:39:36;;;;;;;25.95;10.70;;;5.80;99.90;;;;;;5051909;28;20112;-67
2022/03/30 00:42:13;;;;;;;26.88;11.75;;;5.80;99.90;;;;;;5057371;28;20379;-67
2022/03/30 00:44:38;;;;;;;32.60;11.25;;;5.80;99.90;;;;;;5070729;28;20063;-67
2022/03/30 00:47:14;;;;;;;30.70;11.70;;;5.80;99.90;;;;;;5070213;28;20044;-68
2022/03/30 00:49:40;;;;;;;27.58;12.85;;;7.00;99.90;;;;;;5069671;28;20045;-68
2022/03/30 00:52:06;;;;;;;31.05;13.82;;;5.90;99.90;;;;;;5071347;28;20048;-67
2022/03/30 00:54:32;;;;;;;31.02;13.05;;;5.90;99.90;;;;;;5066343;28;20091;-67
2022/03/30 00:56:58;;;;;;;32.47;14.75;;;5.90;99.90;;;;;;5064986;28;20479;-67
2022/03/30 00:59:23;;;;;;;32.20;12.98;;;5.90;99.90;;;;;;5067178;28;20166;-67
2022/03/30 01:01:49;;;;;;;44.92;15.52;;;5.90;99.90;;;;;;5070167;28;20095;-67
2022/03/30 01:04:14;;;;;;;35.55;14.13;;;6.00;99.90;;;;;;5051563;28;20040;-67
2022/03/30 01:06:40;;;;;;;30.40;14.63;;;6.70;99.90;;;;;;5052958;28;20032;-67
2022/03/30 01:09:06;;;;;;;27.50;13.35;;;5.90;99.90;;;;;;5055914;28;20078;-67
2022/03/30 01:11:32;;;;;;;29.38;13.52;;;6.00;99.90;;;;;;5070439;28;20041;-65
2022/03/30 01:13:58;;;;;;;34.92;13.15;;;6.00;99.90;;;;;;5066133;28;20041;-67
2022/03/30 01:16:23;;;;;;;34.58;13.77;;;6.00;99.90;;;;;;5071726;28;20473;-68
2022/03/30 01:18:49;;;;;;;36.45;14.15;;;6.00;99.90;;;;;;5050859;28;20041;-67
2022/03/30 01:21:17;;;;;;;27.65;12.60;;;6.00;99.90;;;;;;5070826;28;20123;-67
2022/03/30 01:23:45;;;;;;;29.58;13.65;;;6.00;99.90;;;;;;5053994;28;20048;-65
2022/03/30 01:26:10;;;;;;;;;;;5.90;99.90;;;;;;5052308;28;20051;-67
2022/03/30 01:28:36;;;;;;;34.13;13.65;;;6.30;99.90;;;;;;5072026;28;19920;-68
2022/03/30 01:33:48;;;;;;;35.53;13.18;;;6.00;99.90;;;;;;5024352;28;20418;-68
2022/03/30 01:36:17;;;;;;;29.98;12.32;;;6.00;99.90;;;;;;5048692;28;20065;-66
2022/03/30 01:38:45;;;;;;;34.63;12.95;;;6.00;99.90;;;;;;5042125;28;20051;-67
2022/03/30 01:41:11;;;;;;;;;;;6.00;99.90;;;;;;5052109;28;20047;-67
2022/03/30 01:43:36;;;;;;;29.85;11.38;;;5.90;99.90;;;;;;5068821;28;19920;-67
2022/03/30 01:46:02;;;;;;;27.38;13.05;;;5.90;99.90;;;;;;5064504;28;20383;-67
2022/03/30 01:48:28;;;;;;;34.15;14.07;;;5.90;99.90;;;;;;5071776;28;20063;-68
2022/03/30 01:50:54;;;;;;;36.97;13.85;;;5.90;99.90;;;;;;5071507;28;20044;-67
2022/03/30 01:53:19;;;;;;;37.47;13.82;;;5.90;99.90;;;;;;5051980;28;20044;-66
2022/03/30 01:55:45;;;;;;;32.20;13.75;;;5.90;99.90;;;;;;5073839;28;20047;-66
2022/03/30 01:58:11;;;;;;;25.77;12.52;;;5.90;99.90;;;;;;5068385;28;20053;-67
2022/03/30 02:00:37;;;;;;;35.10;13.93;;;6.50;99.90;;;;;;5070920;28;20032;-68
2022/03/30 02:03:03;;;;;;;30.00;14.57;;;5.90;99.90;;;;;;5070929;28;20036;-68
2022/03/30 02:05:31;;;;;;;36.30;14.88;;;5.90;99.90;;;;;;5071006;28;20044;-66
2022/03/30 02:07:57;;;;;;;35.90;14.48;;;5.80;99.90;;;;;;5048285;28;20195;-67
2022/03/30 02:10:28;;;;;;;40.65;16.67;;;5.80;99.90;;;;;;5068324;28;20040;-67
2022/03/30 02:12:53;;;;;;;33.88;13.52;;;5.70;99.90;;;;;;5069130;28;20486;-66
2022/03/30 02:15:19;;;;;;;35.60;15.20;;;5.80;99.90;;;;;;5051533;28;20040;-67
2022/03/30 02:17:45;;;;;;;40.20;15.20;;;5.80;99.90;;;;;;5042756;28;20483;-67
2022/03/30 02:20:11;;;;;;;39.25;16.73;;;5.70;99.90;;;;;;5066252;28;20093;-68
2022/03/30 02:22:38;;;;;;;33.85;14.23;;;5.70;99.90;;;;;;5037989;28;20055;-67
2022/03/30 02:25:04;;;;;;;35.20;14.27;;;5.80;99.90;;;;;;5042432;28;20040;-67
2022/03/30 02:27:30;;;;;;;36.92;14.25;;;5.80;99.90;;;;;;5053639;28;20166;-67
2022/03/30 02:29:56;;;;;;;39.72;14.50;;;5.70;99.90;;;;;;5074466;28;20127;-67
2022/03/30 02:32:22;;;;;;;27.63;12.30;;;5.70;99.90;;;;;;5052100;28;20033;-67
2022/03/30 02:34:47;;;;;;;25.10;11.05;;;6.40;99.90;;;;;;5034916;28;20564;-66
2022/03/30 02:37:14;;;;;;;26.20;8.85;;;5.70;99.90;;;;;;5070020;28;20490;-67
2022/03/30 02:39:40;;;;;;;22.85;8.20;;;6.00;99.90;;;;;;5070020;28;20056;-68
2022/03/30 02:42:07;;;;;;;16.45;6.57;;;5.70;99.90;;;;;;5069521;28;20540;-67
2022/03/30 02:44:34;;;;;;;10.77;3.08;;;5.60;99.90;;;;;;5054665;28;20053;-67
2022/03/30 02:47:00;;;;;;;9.52;3.90;;;5.70;99.90;;;;;;5071646;28;20098;-67
2022/03/30 02:49:27;;;;;;;7.60;3.28;;;5.70;99.90;;;;;;5054673;28;20120;-68
2022/03/30 02:51:53;;;;;;;6.97;2.40;;;6.10;99.90;;;;;;5072301;28;20051;-66
2022/03/30 02:54:19;;;;;;;7.15;2.35;;;5.70;99.90;;;;;;5072666;28;20040;-66
2022/03/30 02:56:45;;;;;;;4.25;1.90;;;5.70;99.90;;;;;;5065944;28;20059;-67
2022/03/30 02:59:11;;;;;;;5.45;1.70;;;5.70;99.90;;;;;;5074787;28;20051;-68
2022/03/30 03:01:37;;;;;;;6.05;1.95;;;5.70;99.90;;;;;;5056153;28;20433;-67
2022/03/30 03:04:03;;;;;;;5.10;1.88;;;5.60;99.90;;;;;;5071448;28;20040;-67
2022/03/30 03:06:29;;;;;;;5.85;2.00;;;5.60;99.90;;;;;;5073466;28;20055;-68
2022/03/30 03:08:55;;;;;;;3.50;1.70;;;5.60;99.90;;;;;;5071826;28;20041;-67
2022/03/30 03:11:21;;;;;;;6.40;1.60;;;5.60;99.90;;;;;;5070816;28;20041;-68
2022/03/30 03:13:46;;;;;;;2.60;1.65;;;5.60;99.90;;;;;;5071586;28;20375;-68
2022/03/30 03:16:13;;;;;;;3.08;1.40;;;5.50;99.90;;;;;;5072234;28;20063;-67
2022/03/30 03:18:39;;;;;;;4.40;1.63;;;5.50;99.90;;;;;;5073789;28;20106;-67
2022/03/30 03:21:05;;;;;;;3.70;1.20;;;5.50;99.90;;;;;;5036964;28;20097;-67
2022/03/30 03:23:30;;;;;;;2.80;1.30;;;5.60;99.90;;;;;;5054265;28;20048;-67
2022/03/30 03:25:56;;;;;;;2.05;1.20;;;5.60;99.90;;;;;;5053222;28;20398;-67
2022/03/30 03:28:21;;;;;;;2.70;1.08;;;5.60;99.90;;;;;;5067442;28;20364;-67
2022/03/30 03:30:47;;;;;;;3.25;1.17;;;5.60;99.90;;;;;;5070148;28;20039;-66
2022/03/30 03:33:15;;;;;;;2.55;1.05;;;5.50;99.90;;;;;;5038590;28;20036;-68
2022/03/30 03:35:41;;;;;;;2.72;1.38;;;5.50;99.90;;;;;;5072047;28;20048;-67
2022/03/30 03:38:08;;;;;;;2.40;0.98;;;5.50;99.90;;;;;;5054313;28;20036;-68
2022/03/30 03:40:35;;;;;;;3.30;0.90;;;5.50;99.90;;;;;;5053836;28;20501;-67
2022/03/30 03:43:02;;;;;;;2.63;0.60;;;5.40;99.90;;;;;;5073046;28;20593;-68
2022/03/30 03:45:28;;;;;;;2.95;0.80;;;5.40;99.90;;;;;;5071892;28;20044;-67
2022/03/30 03:47:54;;;;;;;0.80;0.70;;;5.40;99.90;;;;;;5054835;28;20529;-67
2022/03/30 03:50:23;;;;;;;0.90;0.70;;;5.40;99.90;;;;;;5055386;28;20109;-66
2022/03/30 03:52:49;;;;;;;4.70;0.80;;;5.30;99.90;;;;;;5072361;28;20078;-67
2022/03/30 03:55:15;;;;;;;2.30;0.88;;;5.30;99.90;;;;;;5053911;28;20421;-66
2022/03/30 03:57:41;;;;;;;4.32;0.88;;;5.30;99.90;;;;;;5077770;28;20044;-67
2022/03/30 04:00:10;;;;;;;2.47;1.00;;;5.30;99.90;;;;;;5055825;28;20036;-68
2022/03/30 04:02:36;;;;;;;0.93;0.73;;;5.30;99.90;;;;;;5071165;28;20044;-68
2022/03/30 04:05:02;;;;;;;1.70;0.90;;;5.30;99.90;;;;;;5075107;28;20102;-66
2022/03/30 04:07:28;;;;;;;1.98;1.08;;;5.30;99.90;;;;;;5053612;28;20048;-66
2022/03/30 04:09:54;;;;;;;1.48;0.60;;;5.30;99.90;;;;;;5072775;28;20037;-66
2022/03/30 04:12:20;;;;;;;6.30;0.90;;;5.30;99.90;;;;;;5070913;28;20040;-67
2022/03/30 04:14:48;;;;;;;1.20;0.90;;;5.20;99.90;;;;;;5055260;28;20402;-67
2022/03/30 04:17:13;;;;;;;1.10;0.90;;;5.20;99.90;;;;;;5066546;28;20583;-67
2022/03/30 04:19:39;;;;;;;1.60;0.90;;;5.20;99.90;;;;;;5069969;28;20255;-66
2022/03/30 04:22:08;;;;;;;3.63;1.00;;;5.10;99.90;;;;;;5055317;28;20386;-66
2022/03/30 04:24:33;;;;;;;;;;;5.10;99.90;;;;;;5071590;28;20110;-66
2022/03/30 04:26:59;;;;;;;1.23;0.82;;;5.10;99.90;;;;;;5067606;28;19936;-66
2022/03/30 04:29:28;;;;;;;1.85;1.00;;;5.40;99.90;;;;;;5068511;28;20123;-67
2022/03/30 04:31:53;;;;;;;1.50;1.23;;;4.90;99.90;;;;;;5072701;28;20608;-68
2022/03/30 04:34:19;;;;;;;6.28;1.52;;;4.90;99.90;;;;;;5071283;28;20047;-66
2022/03/30 04:36:45;;;;;;;3.25;1.52;;;4.90;99.90;;;;;;5054204;28;20045;-69
2022/03/30 04:39:10;;;;;;;3.28;1.38;;;4.80;99.90;;;;;;5072361;28;20200;-67
2022/03/30 04:41:36;;;;;;;3.75;1.30;;;4.80;99.90;;;;;;5065552;28;20048;-68
2022/03/30 04:44:01;;;;;;;3.50;1.27;;;4.80;99.90;;;;;;5061204;28;20101;-67
2022/03/30 04:46:27;;;;;;;2.83;1.20;;;4.80;99.90;;;;;;5072813;28;20049;-67
2022/03/30 04:48:53;;;;;;;2.97;1.40;;;4.80;99.90;;;;;;5053509;28;20049;-68
2022/03/30 04:51:18;;;;;;;2.65;1.40;;;4.90;99.90;;;;;;5071927;28;20057;-68
2022/03/30 04:53:44;;;;;;;3.88;1.65;;;4.70;99.90;;;;;;5071460;28;20090;-67
2022/03/30 04:56:09;;;;;;;3.45;1.50;;;4.60;99.90;;;;;;5037839;28;20048;-67
2022/03/30 04:58:35;;;;;;;3.05;1.60;;;4.60;99.90;;;;;;5062157;28;20041;-66
2022/03/30 05:01:01;;;;;;;3.95;1.60;;;4.60;99.90;;;;;;5071040;28;20067;-68
2022/03/30 05:03:26;;;;;;;6.88;1.80;;;4.50;99.90;;;;;;5067915;28;20036;-67
2022/03/30 05:05:52;;;;;;;5.60;1.60;;;4.60;99.90;;;;;;5052829;28;20041;-67
2022/03/30 05:08:18;;;;;;;6.13;2.03;;;4.60;99.90;;;;;;5020510;28;20379;-67
2022/03/30 05:10:46;;;;;;;4.95;1.58;;;4.60;99.90;;;;;;5038515;28;20056;-67
2022/03/30 05:13:12;;;;;;;;;;;4.60;99.90;;;;;;5069523;28;20127;-68
2022/03/30 05:15:38;;;;;;;3.70;1.52;;;4.60;99.90;;;;;;5072356;28;20410;-68
2022/03/30 05:18:04;;;;;;;3.28;1.77;;;4.70;99.90;;;;;;5068964;28;20483;-68
2022/03/30 05:20:29;;;;;;;2.53;1.55;;;4.50;99.90;;;;;;5071381;28;20127;-67
2022/03/30 05:22:55;;;;;;;7.10;2.00;;;4.40;99.90;;;;;;5070311;28;20119;-67
2022/03/30 05:25:21;;;;;;;4.20;1.77;;;4.40;99.90;;;;;;5070352;28;20060;-66
2022/03/30 05:27:47;;;;;;;4.72;1.70;;;4.40;99.90;;;;;;5071488;28;20045;-68
2022/03/30 05:30:13;;;;;;;9.18;2.15;;;4.30;99.90;;;;;;5071713;28;20074;-68
2022/03/30 05:32:44;;;;;;;8.40;1.80;;;4.30;99.90;;;;;;5080173;28;20048;-67
2022/03/30 05:35:11;;;;;;;5.05;1.73;;;4.30;99.90;;;;;;5043233;28;20048;-68
2022/03/30 05:37:36;;;;;;;5.90;1.88;;;4.30;99.90;;;;;;5064728;28;20131;-67
2022/03/30 05:40:04;;;;;;;3.33;1.63;;;4.30;99.90;;;;;;5053541;28;20131;-67
2022/03/30 05:42:30;;;;;;;7.80;1.97;;;4.30;99.90;;;;;;5066282;28;20172;-66
2022/03/30 05:44:55;;;;;;;4.45;1.85;;;4.30;99.90;;;;;;5058633;28;20455;-67
2022/03/30 05:47:21;;;;;;;6.07;2.10;;;4.30;99.90;;;;;;5062251;28;20556;-67
2022/03/30 05:49:47;;;;;;;4.82;1.63;;;4.30;99.90;;;;;;5068410;28;20067;-67
2022/03/30 05:52:13;;;;;;;8.15;2.05;;;4.30;99.90;;;;;;5066067;28;20041;-65
2022/03/30 05:54:38;;;;;;;7.95;2.00;;;4.30;99.90;;;;;;5067470;28;20041;-65
2022/03/30 05:57:05;;;;;;;6.93;1.95;;;4.30;99.90;;;;;;5067088;28;20063;-66
2022/03/30 05:59:43;;;;;;;3.35;1.75;;;4.30;99.90;;;;;;5049425;28;20045;-68
2022/03/30 06:02:10;;;;;;;6.40;2.00;;;4.30;99.90;;;;;;5063167;28;20137;-67
2022/03/30 06:04:38;;;;;;;7.90;2.03;;;4.40;99.90;;;;;;5062888;28;20049;-66
2022/03/30 06:07:04;;;;;;;7.70;2.30;;;4.40;99.90;;;;;;5033068;28;20478;-67
2022/03/30 06:09:33;;;;;;;8.68;2.10;;;4.30;99.90;;;;;;5048323;28;20410;-66
2022/03/30 06:12:05;;;;;;;9.30;1.90;;;4.40;99.90;;;;;;5072101;28;20044;-67
2022/03/30 06:14:32;;;;;;;8.50;2.35;;;4.40;99.90;;;;;;5051971;28;20141;-67
2022/03/30 06:16:58;;;;;;;6.32;2.30;;;4.40;99.90;;;;;;5069977;28;20073;-66
2022/03/30 06:19:24;;;;;;;3.90;2.10;;;4.40;99.90;;;;;;5056643;28;20052;-66
2022/03/30 06:21:51;;;;;;;9.77;2.28;;;4.50;99.90;;;;;;5074259;28;20033;-66
2022/03/30 06:24:16;;;;;;;6.25;2.30;;;4.40;99.90;;;;;;5078076;28;20079;-66
2022/03/30 06:26:43;;;;;;;7.57;2.40;;;4.50;99.90;;;;;;5057405;28;20076;-66
2022/03/30 06:29:09;;;;;;;5.20;2.10;;;4.50;99.90;;;;;;5073975;28;20032;-67
2022/03/30 06:31:35;;;;;;;6.43;2.60;;;4.60;99.90;;;;;;5037268;28;20052;-67
2022/03/30 06:34:02;;;;;;;7.75;2.45;;;4.60;99.90;;;;;;5067440;28;20495;-66
2022/03/30 06:36:28;;;;;;;6.95;2.40;;;4.60;99.90;;;;;;5053233;28;20127;-66
2022/03/30 06:38:54;;;;;;;7.10;3.13;;;4.70;99.90;;;;;;5068187;28;20119;-66
2022/03/30 06:41:19;;;;;;;7.05;2.17;;;4.70;99.90;;;;;;5058260;28;20133;-67
2022/03/30 06:43:46;;;;;;;9.07;2.80;;;4.80;99.90;;;;;;5043081;28;20041;-66
2022/03/30 06:46:16;;;;;;;6.70;2.47;;;5.10;99.90;;;;;;5054793;28;20040;-67
2022/03/30 06:48:42;;;;;;;8.00;2.42;;;4.90;99.90;;;;;;5055392;28;20384;-67
2022/03/30 06:51:08;;;;;;;6.95;2.40;;;5.00;99.90;;;;;;5037107;28;20515;-66
2022/03/30 06:53:34;;;;;;;6.75;2.38;;;5.00;99.90;;;;;;5054949;28;20072;-67
2022/03/30 06:56:00;;;;;;;9.00;2.53;;;5.20;99.90;;;;;;5036773;28;20486;-67
2022/03/30 06:58:25;;;;;;;6.78;2.03;;;5.20;99.90;;;;;;5067360;28;20044;-66
2022/03/30 07:00:51;;;;;;;6.63;2.00;;;5.20;99.90;;;;;;5071310;28;20520;-66
2022/03/30 07:03:18;;;;;;;9.32;2.20;;;5.30;99.90;;;;;;5057125;28;20045;-68
2022/03/30 07:05:44;;;;;;;9.48;2.10;;;5.40;99.90;;;;;;5061195;28;20043;-66
2022/03/30 07:10:53;;;;;;;7.57;1.80;;;5.70;99.90;;;;;;5072070;28;20044;-66
2022/03/30 07:13:21;;;;;;;7.68;2.15;;;5.60;99.90;;;;;;5074862;28;20489;-66
2022/03/30 07:15:47;;;;;;;5.78;2.05;;;5.60;99.90;;;;;;5059701;28;20049;-68
2022/03/30 07:18:13;;;;;;;11.32;2.40;;;5.60;99.90;;;;;;5051088;28;20037;-66
2022/03/30 07:20:39;;;;;;;8.18;2.10;;;6.20;99.90;;;;;;5053074;28;20040;-65
2022/03/30 07:23:05;;;;;;;6.65;1.90;;;5.90;99.90;;;;;;5052800;28;20067;-66
2022/03/30 07:25:31;;;;;;;10.32;2.10;;;6.00;99.90;;;;;;5064936;28;20053;-66
2022/03/30 07:27:59;;;;;;;6.10;1.75;;;6.00;99.90;;;;;;5067530;28;20052;-66
2022/03/30 07:30:25;;;;;;;7.00;1.80;;;6.00;99.90;;;;;;5069684;28;20523;-66
2022/03/30 07:32:52;;;;;;;7.55;2.45;;;6.00;99.90;;;;;;5051940;28;20047;-67
2022/03/30 07:35:20;;;;;;;4.28;1.52;;;6.10;99.90;;;;;;5067024;28;20044;-67
2022/03/30 07:37:47;;;;;;;5.78;1.90;;;6.10;99.90;;;;;;5070130;28;20047;-68
2022/03/30 07:40:18;;;;;;;6.32;1.90;;;7.80;99.90;;;;;;5066275;28;20037;-66
2022/03/30 07:42:46;;;;;;;5.65;1.92;;;6.20;99.90;;;;;;5070853;28;20385;-66
2022/03/30 07:45:12;;;;;;;7.00;1.77;;;6.10;99.90;;;;;;5070035;28;20587;-66
2022/03/30 07:47:39;;;;;;;5.53;1.88;;;6.20;99.90;;;;;;5070522;28;20056;-66
2022/03/30 07:50:06;;;;;;;12.70;2.25;;;6.20;99.90;;;;;;5069633;28;20105;-65
2022/03/30 07:52:31;;;;;;;8.07;2.00;;;6.20;99.90;;;;;;5070491;28;20052;-66
2022/03/30 07:54:57;;;;;;;9.38;1.95;;;7.20;99.90;;;;;;5066845;28;20166;-66
2022/03/30 07:57:27;;;;;;;11.18;2.08;;;6.20;99.90;;;;;;5070010;28;20144;-66
2022/03/30 07:59:57;;;;;;;7.38;2.00;;;6.20;99.90;;;;;;5050757;28;20439;-65
2022/03/30 08:02:24;;;;;;;4.60;1.55;;;6.00;99.90;;;;;;5067726;28;20044;-65
2022/03/30 08:04:50;;;;;;;8.27;1.70;;;6.10;99.90;;;;;;5047998;28;20089;-65
2022/03/30 08:07:16;;;;;;;8.15;1.50;;;6.00;99.90;;;;;;5051712;28;20056;-66
2022/03/30 08:09:43;;;;;;;4.78;1.67;;;6.00;99.90;;;;;;5068363;28;20150;-66
2022/03/30 08:12:11;;;;;;;4.90;1.30;;;5.90;99.90;;;;;;5048556;28;20051;-66
2022/03/30 08:14:37;;;;;;;5.05;1.10;;;5.90;99.90;;;;;;5051292;28;20082;-65
2022/03/30 08:17:03;;;;;;;8.65;1.60;;;5.70;99.90;;;;;;5068582;28;20032;-66
2022/03/30 08:19:29;;;;;;;4.90;1.52;;;5.40;99.90;;;;;;5048168;28;20048;-66
2022/03/30 08:24:39;;;;;;;7.50;1.38;;;5.30;99.90;;;;;;5069418;28;20052;-67
2022/03/30 08:27:05;;;;;;;4.95;1.40;;;5.50;99.90;;;;;;5046890;28;20056;-66
2022/03/30 08:29:31;;;;;;;4.43;1.33;;;5.70;99.90;;;;;;5069175;28;20093;-64
2022/03/30 08:31:57;;;;;;;9.35;1.50;;;5.60;99.90;;;;;;5050966;28;20052;-66
2022/03/30 08:34:23;;;;;;;7.10;1.30;;;5.60;99.90;;;;;;5068894;28;20051;-65
2022/03/30 08:36:49;;;;;;;4.60;1.58;;;5.60;99.90;;;;;;5068085;28;20466;-66
2022/03/30 08:39:15;;;;;;;3.70;1.10;;;5.70;99.90;;;;;;5048149;28;20127;-65
2022/03/30 08:41:45;;;;;;;8.02;1.52;;;5.80;99.90;;;;;;5068112;28;20371;-64
2022/03/30 08:44:14;;;;;;;12.02;1.88;;;5.80;99.90;;;;;;5069734;28;20105;-66
2022/03/30 08:46:41;;;;;;;4.78;1.42;;;5.20;99.90;;;;;;5051142;28;20045;-66
2022/03/30 08:49:08;;;;;;;1.93;0.93;;;6.00;99.90;;;;;;5069809;28;20136;-65
2022/03/30 08:51:39;;;;;;;4.97;1.13;;;6.10;99.90;;;;;;5069313;28;20059;-66
2022/03/30 08:54:08;;;;;;;9.13;1.77;;;6.20;99.90;;;;;;5068925;28;20490;-64
2022/03/30 08:56:37;;;;;;;7.28;1.52;;;6.30;99.90;;;;;;5067797;28;20044;-67
2022/03/30 08:59:04;;;;;;;;;;;6.30;99.90;;;;;;5048165;28;20048;-64
2022/03/30 09:01:34;;;;;;;9.10;1.35;;;6.30;99.90;;;;;;5067947;28;20005;-66
2022/03/30 09:04:03;;;;;;;7.35;1.27;;;6.60;99.90;;;;;;5066863;28;20071;-66
2022/03/30 09:06:45;;;;;;;5.07;1.20;;;6.60;99.90;;;;;;5035013;28;20490;-64
2022/03/30 09:09:12;;;;;;;3.65;0.98;;;6.70;99.90;;;;;;5067878;28;20045;-66
2022/03/30 09:11:41;;;;;;;5.93;1.60;;;6.70;99.90;;;;;;5047764;28;20036;-65
2022/03/30 09:14:15;;;;;;;6.07;1.45;;;7.70;99.90;;;;;;5068442;28;20624;-65
2022/03/30 09:16:45;;;;;;;8.90;1.50;;;6.80;99.90;;;;;;5067883;28;20570;-66
2022/03/30 09:19:14;;;;;;;5.97;1.30;;;6.90;99.90;;;;;;5068632;28;20482;-66
2022/03/30 09:21:40;;;;;;;;;;;7.00;99.90;;;;;;5068848;28;20041;-67
2022/03/30 09:24:06;;;;;;;6.45;1.08;;;7.20;99.90;;;;;;5066150;28;20078;-66
2022/03/30 09:26:33;;;;;;;6.13;1.23;;;6.90;99.90;;;;;;5067609;28;20134;-65
2022/03/30 09:28:58;;;;;;;5.47;1.25;;;6.90;99.90;;;;;;5064960;28;20086;-66
2022/03/30 09:31:25;;;;;;;5.15;1.20;;;6.90;99.90;;;;;;5064094;28;20040;-66
2022/03/30 09:33:53;;;;;;;4.38;0.90;;;6.90;99.90;;;;;;5066949;28;20041;-66
2022/03/30 09:36:33;;;;;;;4.13;1.52;;;7.00;99.90;;;;;;5068255;28;20405;-66
2022/03/30 09:38:58;;;;;;;5.10;1.50;;;7.00;99.90;;;;;;5063929;28;20109;-65
2022/03/30 09:41:24;;;;;;;4.07;1.15;;;7.10;99.90;;;;;;5066318;28;20503;-65
2022/03/30 09:44:03;;;;;;;4.70;1.30;;;7.00;99.90;;;;;;5067310;28;20363;-67
2022/03/30 09:46:29;;;;;;;6.55;1.48;;;7.00;99.90;;;;;;5049100;28;20047;-65
2022/03/30 09:48:56;;;;;;;2.63;0.95;;;6.90;99.90;;;;;;5067773;28;20044;-65
2022/03/30 09:51:25;;;;;;;4.40;1.27;;;6.80;99.90;;;;;;5048289;28;20064;-66
2022/03/30 09:53:51;;;;;;;8.00;1.60;;;7.00;99.90;;;;;;5050327;28;20051;-65
2022/03/30 09:56:25;;;;;;;3.78;1.13;;;7.20;99.90;;;;;;5071279;28;20465;-65
2022/03/30 09:59:02;;;;;;;5.32;1.98;;;7.30;99.90;;;;;;5067028;28;20045;-65
2022/03/30 10:01:33;;;;;;;8.95;1.55;;;7.60;99.90;;;;;;5070146;28;20056;-66
2022/03/30 10:04:01;;;;;;;5.53;1.92;;;7.70;99.90;;;;;;5069970;28;20083;-66
2022/03/30 10:06:40;;;;;;;11.38;2.00;;;7.70;99.90;;;;;;5070992;28;20048;-66
2022/03/30 10:09:06;;;;;;;8.20;1.77;;;7.70;99.90;;;;;;5071488;28;20052;-65
2022/03/30 10:11:32;;;;;;;7.75;2.00;;;7.60;99.90;;;;;;5070329;28;20052;-65
2022/03/30 10:14:03;;;;;;;6.63;1.70;;;7.80;99.90;;;;;;5069399;28;20058;-65
2022/03/30 10:16:29;;;;;;;7.00;2.00;;;7.60;99.90;;;;;;5070303;28;20129;-65
2022/03/30 10:18:56;;;;;;;5.95;2.10;;;7.50;99.90;;;;;;5067357;28;20068;-65
2022/03/30 10:21:40;;;;;;;5.88;1.58;;;7.50;99.90;;;;;;5067508;28;20043;-67
2022/03/30 10:24:27;;;;;;;6.20;2.05;;;7.60;99.90;;;;;;5069520;28;20055;-65
2022/03/30 10:27:14;;;;;;;6.93;1.65;;;7.70;99.90;;;;;;5070180;28;20403;-65
2022/03/30 10:29:49;;;;;;;6.07;1.83;;;7.70;99.90;;;;;;5052452;28;20080;-66
2022/03/30 10:32:20;;;;;;;6.72;1.90;;;7.60;99.90;;;;;;5071243;28;20124;-66
2022/03/30 10:34:59;;;;;;;8.25;1.80;;;7.60;99.90;;;;;;5050839;28;20068;-68
2022/03/30 10:37:38;;;;;;;10.55;1.95;;;7.50;99.90;;;;;;5070587;28;20118;-66
2022/03/30 10:40:03;;;;;;;3.92;1.60;;;7.40;99.90;;;;;;5069020;28;20051;-66
2022/03/30 10:42:47;;;;;;;9.15;1.90;;;7.20;99.90;;;;;;5053064;28;20048;-66
2022/03/30 10:45:28;;;;;;;7.82;1.65;;;7.00;99.90;;;;;;5068879;28;20041;-66
2022/03/30 10:48:12;;;;;;;8.30;1.50;;;7.10;99.90;;;;;;5069600;28;20056;-65
2022/03/30 10:50:50;;;;;;;6.70;1.65;;;7.40;99.90;;;;;;5070910;28;20048;-65
2022/03/30 10:53:31;;;;;;;4.57;1.50;;;7.10;99.90;;;;;;5061004;28;20064;-66
2022/03/30 10:56:09;;;;;;;7.43;1.30;;;7.10;99.90;;;;;;5068241;28;20090;-67
2022/03/30 10:59:00;;;;;;;6.53;1.50;;;7.50;99.90;;;;;;5064566;28;20362;-65
2022/03/30 11:01:28;;;;;;;8.25;1.30;;;7.10;99.90;;;;;;5068265;28;20040;-65
2022/03/30 11:04:22;;;;;;;3.00;1.10;;;7.20;99.90;;;;;;5062310;28;20101;-65
2022/03/30 11:06:54;;;;;;;7.13;1.50;;;7.20;99.90;;;;;;5037139;28;20052;-64
2022/03/30 11:09:20;;;;;;;4.72;1.48;;;7.30;99.90;;;;;;5065397;28;20490;-67
2022/03/30 11:12:14;;;;;;;4.78;1.20;;;7.30;99.90;;;;;;5050828;28;20040;-67
2022/03/30 11:14:46;;;;;;;1.85;1.05;;;7.20;99.90;;;;;;5067535;28;20135;-66
2022/03/30 11:17:30;;;;;;;5.47;1.30;;;7.20;99.90;;;;;;5067014;28;20043;-66
2022/03/30 11:19:57;;;;;;;7.05;1.50;;;7.30;99.90;;;;;;5066312;28;20044;-67
2022/03/30 11:22:26;;;;;;;5.70;1.23;;;7.50;99.90;;;;;;5065582;28;20299;-66
2022/03/30 11:25:19;;;;;;;3.45;1.30;;;9.20;99.90;;;;;;5060375;28;20059;-67
2022/03/30 11:27:57;;;;;;;5.72;1.55;;;8.10;99.00;;;;;;5060105;28;20521;-67
2022/03/30 11:30:28;;;;;;;3.28;1.10;;;8.20;98.80;;;;;;5061599;28;20048;-66
2022/03/30 11:33:01;;;;;;;5.28;1.45;;;8.50;99.00;;;;;;5042755;28;20049;-65
2022/03/30 11:35:30;;;;;;;3.00;1.13;;;8.90;99.20;;;;;;5060555;28;20115;-66
2022/03/30 11:38:11;;;;;;;5.57;1.00;;;9.20;97.60;;;;;;5064778;28;20052;-65
2022/03/30 11:40:40;;;;;;;6.53;1.38;;;9.70;95.90;;;;;;5062724;28;20063;-67
2022/03/30 11:43:07;;;;;;;6.03;1.30;;;9.70;94.40;;;;;;5046128;28;20055;-66
2022/03/30 11:45:33;;;;;;;7.22;1.45;;;9.80;94.00;;;;;;5062855;28;20516;-64
2022/03/30 11:48:06;;;;;;;2.03;1.00;;;9.00;93.80;;;;;;5063639;28;20052;-66
2022/03/30 11:50:42;;;;;;;4.72;1.10;;;9.20;94.40;;;;;;5045356;28;20048;-65
2022/03/30 11:53:19;;;;;;;4.03;1.40;;;9.30;95.40;;;;;;5045879;28;20048;-66
2022/03/30 11:55:59;;;;;;;8.00;1.63;;;9.30;93.60;;;;;;5059068;28;20542;-66
2022/03/30 11:58:36;;;;;;;2.88;1.05;;;9.30;93.90;;;;;;5044760;28;20049;-64
2022/03/30 12:01:10;;;;;;;5.40;1.13;;;9.40;93.60;;;;;;5063881;28;20072;-67
2022/03/30 12:03:37;;;;;;;4.60;1.13;;;10.10;94.40;;;;;;5041113;28;20486;-66
2022/03/30 12:06:05;;;;;;;2.42;1.17;;;10.00;94.00;;;;;;5066908;28;20066;-66
2022/03/30 12:08:46;;;;;;;4.35;1.42;;;10.80;88.70;;;;;;5046046;28;20044;-67
2022/03/30 12:11:13;;;;;;;4.00;1.27;;;10.90;88.70;;;;;;5065153;28;20048;-66
2022/03/30 12:13:39;;;;;;;5.80;1.07;;;10.60;88.20;;;;;;5048102;28;20048;-67
2022/03/30 12:16:06;;;;;;;7.15;1.48;;;9.90;90.70;;;;;;5029593;28;20075;-65
2022/03/30 12:18:40;;;;;;;5.70;1.10;;;9.50;92.00;;;;;;5062653;28;20048;-66
2022/03/30 12:21:05;;;;;;;6.22;1.40;;;9.30;91.70;;;;;;5060782;28;20826;-66
2022/03/30 12:23:31;;;;;;;7.07;1.42;;;9.40;93.20;;;;;;5044905;28;20048;-67
2022/03/30 12:25:57;;;;;;;6.18;1.92;;;9.10;92.20;;;;;;5064024;28;20095;-66
2022/03/30 12:28:32;;;;;;;10.30;2.33;;;8.90;91.40;;;;;;5064842;28;20424;-66
2022/03/30 12:30:59;;;;;;;6.20;1.80;;;9.10;93.50;;;;;;5062100;28;20076;-65
2022/03/30 12:33:25;;;;;;;6.32;1.40;;;9.40;91.90;;;;;;5064090;28;20048;-66
2022/03/30 12:35:54;;;;;;;6.00;1.25;;;9.80;91.50;;;;;;5058232;28;20559;-66
2022/03/30 12:38:22;;;;;;;5.25;1.15;;;10.00;92.20;;;;;;5065059;28;20062;-66
2022/03/30 12:40:56;;;;;;;9.38;1.52;;;10.50;90.60;;;;;;5047306;28;20056;-67
2022/03/30 12:43:27;;;;;;;6.25;1.40;;;10.40;88.90;;;;;;5043966;28;20499;-65
2022/03/30 12:46:03;;;;;;;9.93;2.38;;;10.40;86.70;;;;;;5062253;28;20041;-64
2022/03/30 12:48:33;;;;;;;10.88;2.55;;;9.70;87.00;;;;;;5044770;28;20132;-66
2022/03/30 12:51:00;;;;;;;4.90;1.20;;;9.80;89.20;;;;;;5052506;28;20053;-66
2022/03/30 12:53:34;;;;;;;10.05;1.33;;;10.30;84.00;;;;;;5053397;28;20052;-66
2022/03/30 12:56:13;;;;;;;5.55;1.15;;;10.20;85.20;;;;;;5041533;28;20049;-66
2022/03/30 12:58:54;;;;;;;5.70;1.75;;;10.30;82.60;;;;;;5035689;28;20064;-66
2022/03/30 13:01:27;;;;;;;4.50;1.00;;;10.40;81.50;;;;;;5047424;28;20048;-67
2022/03/30 13:03:53;;;;;;;4.15;1.50;;;10.70;80.30;;;;;;5045937;28;20318;-66
2022/03/30 13:06:20;;;;;;;2.58;0.95;;;11.20;76.40;;;;;;5052947;28;20049;-66